Time;durP1;ratioP1;P1;durP2;ratioP2;P2;SDS_P1;SDS_P2;PMS_P1;PMS_P2;Temp;Humidity;BMP_temperature;BMP_pressure;BME280_temperature;BME280_humidity;BME280_pressure;Samples;Min_cycle;Max_cycle;Signal;HPM_P1;HPM_P2
2021/08/17 00:00:50;;;;;;;27.93;20.82;;;;;;;19.98;100.00;98872.61;1825931;78;20886;-64
2021/08/17 00:03:17;;;;;;;30.97;21.60;;;;;;;19.96;100.00;98873.50;1826273;78;20882;-64
2021/08/17 00:05:43;;;;;;;30.77;21.07;;;;;;;19.95;100.00;98872.50;1826051;78;21095;-64
2021/08/17 00:08:10;;;;;;;31.02;20.72;;;;;;;19.91;100.00;98877.22;1826049;78;21322;-63
2021/08/17 00:10:38;;;;;;;;;;;;;;;19.89;100.00;98871.34;1828620;78;20839;-64
2021/08/17 00:13:06;;;;;;;;;;;;;;;19.86;100.00;98870.61;1828678;78;20109;-64
2021/08/17 00:15:34;;;;;;;31.25;20.45;;;;;;;19.81;100.00;98864.02;1826204;78;20117;-64
2021/08/17 00:18:02;;;;;;;;;;;;;;;19.76;100.00;98862.84;1828861;78;20862;-64
2021/08/17 00:20:30;;;;;;;35.00;20.15;;;;;;;19.73;100.00;98864.87;1821476;78;20090;-64
2021/08/17 00:22:58;;;;;;;32.75;19.85;;;;;;;19.73;100.00;98856.71;1806466;79;20887;-64
2021/08/17 00:25:24;;;;;;;33.28;20.65;;;;;;;19.67;100.00;98860.20;1806335;79;21401;-64
2021/08/17 00:27:51;;;;;;;35.00;21.52;;;;;;;19.66;100.00;98864.01;1806417;79;21335;-64
2021/08/17 00:30:17;;;;;;;38.85;22.00;;;;;;;19.63;100.00;98859.23;1806377;79;21354;-64
2021/08/17 00:32:44;;;;;;;32.60;20.85;;;;;;;19.62;100.00;98862.27;1806348;79;21413;-65
2021/08/17 00:35:10;;;;;;;35.83;20.68;;;;;;;19.60;100.00;98857.72;1806406;79;21854;-64
2021/08/17 00:37:38;;;;;;;32.40;20.52;;;;;;;19.59;100.00;98858.86;1806398;79;20852;-64
2021/08/17 00:40:06;;;;;;;38.50;22.07;;;;;;;19.57;100.00;98860.53;1806182;79;20848;-64
2021/08/17 00:42:40;;;;;;;30.75;20.80;;;;;;;19.55;100.00;98858.73;1806349;79;20895;-64
2021/08/17 00:45:13;;;;;;;32.05;21.20;;;;;;;19.51;100.00;98857.00;1806286;79;21401;-64
2021/08/17 00:47:40;;;;;;;31.45;21.02;;;;;;;19.47;100.00;98855.48;1803406;79;21190;-64
2021/08/17 00:50:09;;;;;;;35.55;20.90;;;;;;;19.41;100.00;98857.61;1806416;79;28548;-64
2021/08/17 00:52:38;;;;;;;32.03;20.48;;;;;;;19.36;100.00;98861.09;1806264;79;20923;-65
2021/08/17 00:55:07;;;;;;;33.05;21.45;;;;;;;19.34;100.00;98856.53;1806186;79;20962;-65
2021/08/17 00:57:37;;;;;;;37.98;21.57;;;;;;;19.28;100.00;98865.45;1806338;79;21342;-64
2021/08/17 01:00:07;;;;;;;31.73;20.32;;;;;;;19.24;100.00;98858.50;1806717;79;21377;-65
2021/08/17 01:02:33;;;;;;;32.10;20.95;;;;;;;19.18;100.00;98857.64;1806230;79;21416;-64
2021/08/17 01:05:00;;;;;;;34.40;20.25;;;;;;;19.12;100.00;98858.39;1806226;79;21314;-64
2021/08/17 01:07:28;;;;;;;38.50;20.82;;;;;;;19.08;100.00;98858.02;1806116;79;20923;-64
2021/08/17 01:09:55;;;;;;;31.23;21.42;;;;;;;19.00;100.00;98852.85;1806619;79;20919;-64
2021/08/17 01:12:23;;;;;;;37.60;21.12;;;;;;;18.97;100.00;98854.88;1806326;79;21133;-64
2021/08/17 01:14:50;;;;;;;32.48;21.60;;;;;;;18.93;100.00;98845.77;1806416;79;20887;-65
2021/08/17 01:17:20;;;;;;;39.85;21.97;;;;;;;18.85;100.00;98851.47;1806074;79;20883;-63
2021/08/17 01:19:48;;;;;;;37.53;21.60;;;;;;;18.79;100.00;98850.04;1806320;79;20986;-63
2021/08/17 01:22:15;;;;;;;;;;;;;;;18.73;100.00;98847.25;1808803;79;20963;-64
2021/08/17 01:24:41;;;;;;;33.28;22.07;;;;;;;18.69;100.00;98847.66;1806320;79;21116;-64
2021/08/17 01:27:10;;;;;;;32.20;21.23;;;;;;;18.66;100.00;98844.23;1806371;79;20867;-64
2021/08/17 01:29:37;;;;;;;40.03;22.85;;;;;;;18.62;100.00;98842.17;1806627;79;21519;-64
2021/08/17 01:32:06;;;;;;;36.38;21.75;;;;;;;18.59;100.00;98844.72;1806346;79;20923;-63
2021/08/17 01:34:34;;;;;;;30.37;21.68;;;;;;;18.56;100.00;98838.02;1806719;79;20969;-64
2021/08/17 01:37:03;;;;;;;42.60;22.52;;;;;;;18.51;100.00;98842.83;1806395;79;20828;-64
2021/08/17 01:39:30;;;;;;;39.83;24.27;;;;;;;18.46;100.00;98845.16;1781954;79;20891;-64
2021/08/17 01:41:57;;;;;;;39.75;22.48;;;;;;;18.41;100.00;98843.97;1806198;79;20903;-65
2021/08/17 01:44:24;;;;;;;42.95;21.93;;;;;;;18.36;100.00;98844.14;1806313;79;21005;-64
2021/08/17 01:46:50;;;;;;;39.13;22.27;;;;;;;18.33;100.00;98841.52;1806448;79;20887;-64
2021/08/17 01:49:19;;;;;;;35.83;22.15;;;;;;;18.29;100.00;98843.27;1806223;79;21139;-64
2021/08/17 01:51:46;;;;;;;;;;;;;;;18.27;100.00;98843.35;1808925;79;21351;-64
2021/08/17 01:54:15;;;;;;;42.00;22.00;;;;;;;18.22;100.00;98836.16;1806932;79;20090;-63
2021/08/17 01:56:43;;;;;;;33.00;21.95;;;;;;;18.17;100.00;98829.55;1805236;79;20801;-64
2021/08/17 01:59:12;;;;;;;32.60;22.43;;;;;;;18.15;100.00;98822.27;1807063;79;20887;-63
2021/08/17 02:01:39;;;;;;;34.50;22.27;;;;;;;18.15;100.00;98822.27;1806414;79;21893;-63
2021/08/17 02:04:06;;;;;;;35.60;20.05;;;;;;;18.15;100.00;98828.52;1806649;79;21354;-63
2021/08/17 02:06:32;;;;;;;37.58;22.58;;;;;;;18.12;100.00;98823.72;1806255;79;20907;-64
2021/08/17 02:08:59;;;;;;;34.35;22.10;;;;;;;18.11;100.00;98827.56;1806211;79;20863;-64
2021/08/17 02:11:26;;;;;;;36.25;22.48;;;;;;;18.07;100.00;98823.88;1806447;79;20950;-62
2021/08/17 02:13:52;;;;;;;36.25;23.52;;;;;;;18.02;100.00;98812.39;1806753;79;21098;-64
2021/08/17 02:16:20;;;;;;;36.13;22.95;;;;;;;17.97;100.00;98814.14;1806644;79;20855;-63
2021/08/17 02:18:47;;;;;;;37.75;22.55;;;;;;;17.94;100.00;98806.65;1806418;79;20891;-63
2021/08/17 02:21:15;;;;;;;37.48;22.10;;;;;;;17.90;100.00;98806.25;1806362;79;20954;-63
2021/08/17 02:23:42;;;;;;;42.58;23.67;;;;;;;17.88;100.00;98801.70;1806494;79;20843;-63
2021/08/17 02:26:10;;;;;;;36.60;22.33;;;;;;;17.89;100.00;98797.31;1806618;79;21120;-64
2021/08/17 02:28:47;;;;;;;39.42;23.10;;;;;;;17.87;100.00;98796.83;1806495;79;21334;-64
2021/08/17 02:31:14;;;;;;;41.45;23.30;;;;;;;17.87;100.00;98804.19;1803590;79;20891;-63
2021/08/17 02:33:40;;;;;;;40.90;23.73;;;;;;;17.84;100.00;98793.41;1806331;79;21367;-63
2021/08/17 02:36:07;;;;;;;34.53;22.73;;;;;;;17.83;100.00;98787.72;1806841;79;20938;-63
2021/08/17 02:38:34;;;;;;;38.65;23.60;;;;;;;17.83;100.00;98782.86;1806394;79;21405;-63
2021/08/17 02:41:00;;;;;;;35.30;24.15;;;;;;;17.85;100.00;98788.77;1806280;79;21342;-62
2021/08/17 02:43:28;;;;;;;34.58;24.02;;;;;;;17.84;100.00;98790.69;1806033;79;20919;-61
2021/08/17 02:45:56;;;;;;;41.77;24.02;;;;;;;17.83;100.00;98796.43;1806477;79;20959;-61
2021/08/17 02:48:22;;;;;;;42.43;24.72;;;;;;;17.81;100.00;98789.16;1806320;79;21334;-62
2021/08/17 02:50:50;;;;;;;47.55;23.47;;;;;;;17.81;100.00;98798.13;1806304;79;21197;-64
2021/08/17 02:53:17;;;;;;;39.38;23.75;;;;;;;17.84;100.00;98797.48;1806277;79;21428;-64
2021/08/17 02:55:43;;;;;;;40.50;24.30;;;;;;;17.90;100.00;98797.54;1806334;79;21514;-64
2021/08/17 02:58:10;;;;;;;39.18;24.72;;;;;;;17.98;100.00;98794.58;1806455;79;21331;-63
2021/08/17 03:00:39;;;;;;;43.27;23.97;;;;;;;18.03;100.00;98789.55;1806672;79;21366;-64
2021/08/17 03:03:07;;;;;;;37.88;23.55;;;;;;;18.05;100.00;98791.38;1806185;79;21109;-62
2021/08/17 03:05:33;;;;;;;41.30;25.55;;;;;;;18.07;100.00;98794.58;1806159;79;21726;-63
2021/08/17 03:08:05;;;;;;;;;;;;;;;18.04;100.00;98789.23;1808946;79;20843;-64
2021/08/17 03:10:35;;;;;;;34.40;23.50;;;;;;;18.02;100.00;98795.54;1806362;79;20091;-66
2021/08/17 03:13:04;;;;;;;40.30;24.63;;;;;;;18.02;100.00;98790.11;1806189;79;20852;-66
2021/08/17 03:15:34;;;;;;;41.50;24.72;;;;;;;18.06;100.00;98795.71;1806477;79;21682;-66
2021/08/17 03:18:04;;;;;;;40.63;24.75;;;;;;;18.06;100.00;98792.43;1806308;79;20851;-65
2021/08/17 03:20:32;;;;;;;40.23;23.35;;;;;;;18.07;100.00;98794.02;1806301;79;20920;-65
2021/08/17 03:22:58;;;;;;;98.07;27.37;;;;;;;18.11;100.00;98796.33;1817817;78;20894;-63
2021/08/17 03:25:27;;;;;;;40.95;25.05;;;;;;;18.17;100.00;98792.31;1820441;78;20859;-65
2021/08/17 03:27:55;;;;;;;39.98;22.85;;;;;;;18.25;100.00;98793.98;1820433;78;21121;-65
2021/08/17 03:30:25;;;;;;;40.12;24.55;;;;;;;18.33;100.00;98794.54;1820420;78;20981;-65
2021/08/17 03:32:51;;;;;;;42.50;25.02;;;;;;;18.41;100.00;98795.86;1820602;78;20874;-65
2021/08/17 03:35:18;;;;;;;42.38;23.98;;;;;;;18.50;100.00;98799.92;1820548;78;20827;-65
2021/08/17 03:37:45;;;;;;;46.25;24.23;;;;;;;18.58;100.00;98794.22;1820880;78;20866;-65
2021/08/17 03:40:15;;;;;;;41.28;24.50;;;;;;;18.64;100.00;98803.23;1789079;78;21136;-65
2021/08/17 03:42:41;;;;;;;43.05;25.95;;;;;;;18.70;100.00;98798.41;1820741;78;20851;-66
2021/08/17 03:45:11;;;;;;;39.92;23.35;;;;;;;18.76;100.00;98801.20;1820532;78;20989;-65
2021/08/17 03:47:37;;;;;;;40.28;25.95;;;;;;;18.80;100.00;98809.52;1820918;78;20855;-65
2021/08/17 03:50:07;;;;;;;43.75;24.30;;;;;;;18.87;100.00;98808.45;1820812;78;20941;-65
2021/08/17 03:52:33;;;;;;;60.50;25.48;;;;;;;18.96;100.00;98819.27;1820875;78;21119;-65
2021/08/17 03:55:00;;;;;;;34.13;23.47;;;;;;;19.02;100.00;98814.69;1820602;78;20981;-65
2021/08/17 03:57:27;;;;;;;42.90;23.90;;;;;;;19.08;100.00;98810.42;1820402;78;20894;-65
2021/08/17 03:59:55;;;;;;;38.98;24.80;;;;;;;19.15;100.00;98811.49;1820827;78;21346;-64
2021/08/17 04:02:23;;;;;;;42.70;23.45;;;;;;;19.20;100.00;98818.67;1820884;78;20879;-63
2021/08/17 04:04:50;;;;;;;38.70;24.30;;;;;;;19.27;100.00;98812.16;1820740;78;21081;-63
2021/08/17 04:07:16;;;;;;;41.02;23.05;;;;;;;19.34;100.00;98812.43;1820692;78;20898;-63
2021/08/17 04:09:43;;;;;;;40.28;24.43;;;;;;;19.40;100.00;98817.92;1820555;78;20922;-64
2021/08/17 04:12:10;;;;;;;56.55;25.50;;;;;;;19.45;100.00;98814.19;1788713;78;20890;-64
2021/08/17 04:14:37;;;;;;;39.40;23.62;;;;;;;19.51;100.00;98811.52;1820613;78;20906;-64
2021/08/17 04:17:05;;;;;;;33.33;22.67;;;;;;;19.58;100.00;98811.00;1820647;78;20882;-65
2021/08/17 04:19:35;;;;;;;35.43;23.62;;;;;;;19.67;100.00;98807.12;1820408;78;20866;-65
2021/08/17 04:22:01;;;;;;;35.55;24.43;;;;;;;19.75;100.00;98813.63;1816421;78;20998;-65
2021/08/17 04:24:29;;;;;;;37.20;24.80;;;;;;;19.80;100.00;98810.70;1806189;79;20824;-66
2021/08/17 04:26:56;;;;;;;41.60;22.67;;;;;;;19.84;100.00;98820.34;1806420;79;20887;-65
2021/08/17 04:29:24;;;;;;;37.58;22.10;;;;;;;19.95;100.00;98824.84;1806534;79;21102;-67
2021/08/17 04:31:51;;;;;;;44.42;24.07;;;;;;;20.01;100.00;98815.31;1806203;79;21318;-66
2021/08/17 04:34:17;;;;;;;32.85;21.73;;;;;;;20.09;100.00;98822.63;1806194;79;20919;-64
2021/08/17 04:36:44;;;;;;;38.35;23.12;;;;;;;20.16;100.00;98808.45;1806288;79;21421;-65
2021/08/17 04:39:10;;;;;;;40.08;23.45;;;;;;;20.22;100.00;98820.17;1806246;79;20939;-64
2021/08/17 04:41:39;;;;;;;37.05;23.40;;;;;;;20.28;100.00;98822.90;1806286;79;21190;-66
2021/08/17 04:44:07;;;;;;;41.05;22.67;;;;;;;20.38;100.00;98820.31;1806117;79;21405;-65
2021/08/17 04:46:33;;;;;;;31.75;20.88;;;;;;;20.49;100.00;98815.25;1806316;79;20985;-66
2021/08/17 04:49:01;;;;;;;37.17;22.22;;;;;;;20.58;100.00;98828.25;1806192;79;20982;-66
2021/08/17 04:51:27;;;;;;;41.02;23.18;;;;;;;20.69;100.00;98829.39;1806209;79;21011;-66
2021/08/17 04:53:55;;;;;;;37.05;21.95;;;;;;;20.81;100.00;98820.44;1806231;79;21373;-66
2021/08/17 04:56:23;;;;;;;32.35;21.70;;;;;;;20.95;100.00;98833.76;1806138;79;20844;-66
2021/08/17 04:58:51;;;;;;;39.20;22.40;;;;;;;21.09;100.00;98836.95;1781945;79;21322;-66
2021/08/17 05:01:18;;;;;;;38.53;22.22;;;;;;;21.24;100.00;98839.56;1806320;79;21402;-67
2021/08/17 05:03:44;;;;;;;43.42;21.55;;;;;;;21.36;100.00;98831.91;1806412;79;21421;-64
2021/08/17 05:06:11;;;;;;;38.17;21.95;;;;;;;21.57;100.00;98830.44;1803169;78;21095;-65
2021/08/17 05:08:38;;;;;;;32.95;21.30;;;;;;;21.71;100.00;98832.81;1806206;79;21490;-66
2021/08/17 05:11:07;;;;;;;31.90;20.60;;;;;;;21.81;100.00;98833.69;1806363;79;20905;-66
2021/08/17 05:13:35;;;;;;;34.25;21.05;;;;;;;21.94;100.00;98833.86;1806119;79;20929;-65
2021/08/17 05:16:04;;;;;;;31.80;20.30;;;;;;;22.17;100.00;98827.84;1806250;79;20989;-65
2021/08/17 05:18:33;;;;;;;29.45;20.20;;;;;;;22.20;100.00;98829.94;1781898;79;20898;-65
2021/08/17 05:21:03;;;;;;;35.73;20.95;;;;;;;22.29;100.00;98836.59;1804951;78;21390;-66
2021/08/17 05:23:31;;;;;;;36.85;19.73;;;;;;;22.38;100.00;98831.77;1798045;78;20918;-65
2021/08/17 05:25:59;;;;;;;32.35;19.05;;;;;;;22.61;100.00;98832.79;1819701;78;21333;-64
2021/08/17 05:28:26;;;;;;;30.02;19.02;;;;;;;22.79;100.00;98831.08;1812776;78;21387;-65
2021/08/17 05:30:52;;;;;;;36.55;19.12;;;;;;;22.96;100.00;98828.56;1810816;78;21131;-64
2021/08/17 05:33:19;;;;;;;28.65;20.30;;;;;;;23.12;100.00;98823.88;1813443;78;20917;-66
2021/08/17 05:35:46;;;;;;;34.23;19.77;;;;;;;23.10;100.00;98828.36;1811147;77;20920;-67
2021/08/17 05:38:12;;;;;;;36.42;19.73;;;;;;;23.30;100.00;98831.16;1814829;78;20908;-65
2021/08/17 05:40:39;;;;;;;29.77;18.32;;;;;;;23.36;100.00;98833.83;1816315;78;22027;-65
2021/08/17 05:43:05;;;;;;;31.25;19.35;;;;;;;23.51;100.00;98833.57;1820318;78;21746;-65
2021/08/17 05:45:33;;;;;;;27.27;17.77;;;;;;;23.56;100.00;98824.28;1820362;77;21402;-65
2021/08/17 05:48:00;;;;;;;43.20;18.52;;;;;;;23.81;100.00;98823.47;1820144;78;21568;-65
2021/08/17 05:50:28;;;;;;;33.53;17.37;;;;;;;24.05;100.00;98831.98;1820441;78;21367;-65
2021/08/17 05:52:56;;;;;;;48.10;19.10;;;;;;;24.36;100.00;98831.03;1820165;78;20915;-66
2021/08/17 05:55:23;;;;;;;34.35;17.40;;;;;;;24.45;100.00;98837.08;1816491;78;21732;-65
2021/08/17 05:58:03;;;;;;;35.25;18.40;;;;;;;24.45;100.00;98848.05;1812221;78;20881;-65
2021/08/17 06:00:29;;;;;;;27.40;17.07;;;;;;;24.56;100.00;98844.94;1814096;78;20869;-65
2021/08/17 06:02:56;;;;;;;42.65;17.45;;;;;;;24.76;100.00;98840.19;1810974;78;21343;-65
2021/08/17 06:05:25;;;;;;;26.87;17.12;;;;;;;25.02;100.00;98840.83;1812505;78;21040;-65
2021/08/17 06:07:51;;;;;;;24.87;17.55;;;;;;;25.31;100.00;98831.70;1812758;79;21087;-66
2021/08/17 06:10:19;;;;;;;29.57;16.37;;;;;;;25.26;99.00;98832.02;1795321;78;20914;-65
2021/08/17 06:12:45;;;;;;;29.30;16.02;;;;;;;25.29;99.06;98837.34;1789832;79;21163;-65
2021/08/17 06:15:12;;;;;;;27.90;16.95;;;;;;;25.48;97.20;98815.81;1789718;79;21364;-69
2021/08/17 06:18:29;;;;;;;27.37;14.75;;;;;;;25.41;96.02;98830.27;1810464;79;21711;-65
2021/08/17 06:21:15;;;;;;;25.23;16.25;;;;;;;25.37;93.98;98813.72;1684124;83;20975;-63
2021/08/17 06:23:44;;;;;;;24.87;15.30;;;;;;;25.53;94.35;98822.36;1679114;84;21011;-64
2021/08/17 06:26:10;;;;;;;25.00;15.85;;;;;;;25.72;93.61;98816.73;1693913;84;21073;-65
2021/08/17 06:28:40;;;;;;;21.93;15.43;;;;;;;25.81;91.71;98825.49;1695433;84;20967;-64
2021/08/17 06:31:08;;;;;;;24.27;14.85;;;;;;;25.88;89.70;98814.63;1690838;83;21003;-65
2021/08/17 06:33:35;;;;;;;30.43;14.73;;;;;;;26.01;89.48;98814.38;1689653;83;21079;-65
2021/08/17 06:36:01;;;;;;;23.95;13.70;;;;;;;26.19;89.13;98813.19;1695579;84;21489;-65
2021/08/17 06:38:28;;;;;;;38.38;15.00;;;;;;;26.24;87.05;98812.87;1695164;84;21516;-64
2021/08/17 06:40:55;;;;;;;22.58;14.68;;;;;;;26.35;87.08;98812.39;1706376;83;21403;-65
2021/08/17 06:43:23;;;;;;;23.15;15.80;;;;;;;26.51;87.85;98814.33;1711245;83;20941;-65
2021/08/17 06:45:51;;;;;;;19.73;13.05;;;;;;;26.87;84.68;98806.39;1703235;83;20948;-65
2021/08/17 06:48:17;;;;;;;27.90;13.72;;;;;;;26.98;82.09;98802.96;1688080;85;21515;-64
2021/08/17 06:50:44;;;;;;;23.45;13.53;;;;;;;27.13;84.18;98804.05;1696087;83;21063;-64
2021/08/17 06:53:11;;;;;;;21.48;12.95;;;;;;;27.17;79.93;98813.73;1750369;82;21499;-64
2021/08/17 06:55:37;;;;;;;32.78;14.55;;;;;;;27.27;79.17;98810.87;1751627;82;20983;-65
2021/08/17 06:58:11;;;;;;;26.30;13.90;;;;;;;27.23;79.89;98807.29;1751140;82;21898;-64
2021/08/17 07:00:34;;;;;;;36.70;14.93;;;;;;;27.26;79.03;98804.55;1717041;83;21466;-65
2021/08/17 07:03:00;;;;;;;21.90;13.00;;;;;;;27.59;78.78;98812.42;1717534;83;20983;-64
2021/08/17 07:05:27;;;;;;;19.67;13.90;;;;;;;27.54;75.49;98812.20;1751655;81;20943;-68
2021/08/17 07:07:55;;;;;;;23.32;13.62;;;;;;;27.53;75.99;98820.25;1750365;82;21031;-67
2021/08/17 07:10:22;;;;;;;21.30;12.85;;;;;;;27.71;73.13;98830.61;1751535;82;21140;-67
2021/08/17 07:12:48;;;;;;;28.73;13.70;;;;;;;27.77;72.94;98815.26;1751239;82;20932;-67
2021/08/17 07:15:15;;;;;;;19.60;13.72;;;;;;;27.78;73.50;98823.72;1750634;82;21050;-67
2021/08/17 07:17:42;;;;;;;23.40;12.93;;;;;;;27.90;73.06;98827.55;1760602;79;20931;-67
2021/08/17 07:20:16;;;;;;;23.12;12.33;;;;;;;28.22;71.03;98828.24;1768222;79;21099;-68
2021/08/17 07:22:45;;;;;;;20.35;12.07;;;;;;;28.39;69.90;98826.71;1766970;78;21434;-67
2021/08/17 07:25:12;;;;;;;14.18;10.60;;;;;;;28.40;69.51;98826.33;1776708;79;21458;-65
2021/08/17 07:27:40;;;;;;;14.30;9.65;;;;;;;28.36;69.16;98834.40;1816990;78;20983;-66
2021/08/17 07:30:11;;;;;;;26.73;11.30;;;;;;;28.55;67.90;98825.01;1810611;78;21372;-67
2021/08/17 07:32:46;;;;;;;21.57;10.63;;;;;;;28.59;68.15;98829.36;1780946;79;21083;-68
2021/08/17 07:35:42;;;;;;;19.92;11.12;;;;;;;28.67;66.96;98837.05;1648838;86;22274;-68
2021/08/17 07:38:26;;;;;;;26.57;11.43;;;;;;;28.85;66.57;98837.05;1649696;87;20912;-69
2021/08/17 07:41:17;;;;;;;17.30;10.32;;;;;;;29.00;66.53;98836.47;1628654;88;21057;-68
2021/08/17 07:47:52;;;;;;;26.52;11.55;;;;;;;29.60;63.77;98846.69;1372296;103;21103;-66
2021/08/17 07:50:26;;;;;;;21.35;10.45;;;;;;;29.63;60.73;98850.02;1381454;102;21224;-65
2021/08/17 07:52:53;;;;;;;22.67;10.17;;;;;;;29.45;60.65;98839.02;1350702;103;21107;-65
2021/08/17 07:55:19;;;;;;;19.50;9.80;;;;;;;29.67;59.01;98833.47;1381795;102;21114;-65
2021/08/17 07:57:48;;;;;;;19.45;10.03;;;;;;;29.72;60.43;98833.63;1380732;103;21138;-65
2021/08/17 08:00:16;;;;;;;21.73;11.65;;;;;;;29.84;61.35;98834.00;1365387;103;21161;-65
2021/08/17 08:02:43;;;;;;;22.60;10.70;;;;;;;30.06;60.67;98840.80;1361844;105;21610;-66
2021/08/17 08:05:10;;;;;;;23.07;10.73;;;;;;;30.17;59.77;98849.07;1362425;105;21244;-65
2021/08/17 08:07:39;;;;;;;16.00;9.50;;;;;;;30.36;57.03;98858.29;1358629;104;21056;-65
2021/08/17 08:10:10;;;;;;;17.70;10.28;;;;;;;30.62;56.35;98869.39;1364470;104;21608;-65
2021/08/17 08:12:37;;;;;;;13.50;8.95;;;;;;;30.41;57.87;98873.09;1361805;104;21591;-64
2021/08/17 08:15:05;;;;;;;15.60;8.95;;;;;;;29.66;59.66;98925.30;1364196;103;21912;-64
2021/08/17 08:17:32;;;;;;;15.68;8.53;;;;;;;28.83;61.12;98927.22;1382610;98;21696;-65
2021/08/17 08:20:00;;;;;;;16.12;9.18;;;;;;;28.67;62.86;98941.97;1552386;90;21050;-65
2021/08/17 08:22:27;;;;;;;18.20;9.33;;;;;;;28.28;64.85;98933.53;1602826;88;21457;-63
2021/08/17 08:24:54;;;;;;;20.43;10.68;;;;;;;28.12;66.52;98926.34;1608593;87;21037;-65
2021/08/17 08:27:20;;;;;;;20.90;9.73;;;;;;;28.08;67.04;98928.31;1656301;85;21569;-63
2021/08/17 08:29:47;;;;;;;34.60;11.08;;;;;;;27.73;67.58;98910.94;1647277;86;21685;-66
2021/08/17 08:32:13;;;;;;;19.50;9.50;;;;;;;28.00;66.58;98921.97;1653074;86;21388;-64
2021/08/17 08:34:40;;;;;;;15.63;8.68;;;;;;;28.31;64.67;98915.59;1680249;85;21518;-64
2021/08/17 08:37:08;;;;;;;13.55;7.25;;;;;;;28.48;65.33;98925.14;1641345;87;21025;-63
2021/08/17 08:39:35;;;;;;;20.90;9.08;;;;;;;28.57;65.23;98930.31;1658597;84;21342;-63
2021/08/17 08:42:02;;;;;;;17.00;7.35;;;;;;;28.87;63.45;98927.81;1708596;84;21413;-65
2021/08/17 08:44:29;;;;;;;22.73;7.92;;;;;;;28.88;62.79;98916.95;1751397;82;21013;-64
2021/08/17 08:46:56;;;;;;;23.45;6.97;;;;;;;28.98;62.13;98901.80;1729479;82;21449;-66
2021/08/17 08:49:24;;;;;;;11.63;7.22;;;;;;;28.81;62.73;98917.16;1751152;82;21449;-66
2021/08/17 08:51:50;;;;;;;20.95;8.55;;;;;;;28.97;60.02;98906.31;1750883;82;21534;-64
2021/08/17 08:54:19;;;;;;;15.63;8.23;;;;;;;29.40;59.10;98909.91;1751022;81;21373;-67
2021/08/17 08:56:58;;;;;;;17.42;7.75;;;;;;;29.65;58.93;98904.94;1729940;80;20910;-67
2021/08/17 08:59:30;;;;;;;21.02;7.97;;;;;;;29.18;59.47;98899.45;1608681;86;21073;-67
2021/08/17 09:02:11;;;;;;;15.25;7.90;;;;;;;29.73;57.73;98905.14;1650533;86;21106;-67
2021/08/17 09:04:54;;;;;;;17.32;8.10;;;;;;;30.21;56.96;98898.28;1630600;86;21083;-68
2021/08/17 09:07:50;;;;;;;16.62;7.95;;;;;;;30.15;55.61;98886.81;1629881;86;21087;-68
2021/08/17 09:10:55;;;;;;;22.60;8.53;;;;;;;30.38;56.55;98881.40;1658169;86;21151;-67
2021/08/17 09:13:50;;;;;;;12.33;8.03;;;;;;;30.71;55.71;98895.27;1657803;86;21047;-68
2021/08/17 09:16:45;;;;;;;13.65;6.65;;;;;;;30.55;53.65;98888.24;1630118;88;21094;-67
2021/08/17 09:19:42;;;;;;;12.23;7.65;;;;;;;30.82;52.78;98877.98;1576510;89;21099;-68
2021/08/17 09:22:24;;;;;;;13.62;7.28;;;;;;;31.28;50.41;98878.21;1570926;90;21089;-68
2021/08/17 09:25:13;;;;;;;13.60;7.42;;;;;;;32.07;49.26;98873.86;1620044;87;21032;-67
2021/08/17 09:28:18;;;;;;;10.65;6.67;;;;;;;31.85;49.23;98867.75;1623046;88;21486;-68
2021/08/17 09:34:57;;;;;;;12.30;7.15;;;;;;;32.35;46.75;98861.62;1544569;92;21305;-68
2021/08/17 09:38:10;;;;;;;13.38;7.40;;;;;;;33.00;44.92;98863.64;1515179;94;21202;-68
2021/08/17 09:44:08;;;;;;;18.80;6.80;;;;;;;33.66;44.18;98855.17;1564793;91;21158;-67
2021/08/17 09:46:37;;;;;;;10.90;6.40;;;;;;;33.08;45.39;98847.66;1537367;93;21129;-65
2021/08/17 09:49:29;;;;;;;11.38;6.83;;;;;;;33.06;44.19;98845.90;1537889;93;21922;-67
2021/08/17 09:51:56;;;;;;;11.15;6.45;;;;;;;33.37;44.43;98845.16;1538316;93;21117;-66
2021/08/17 09:54:33;;;;;;;8.70;6.22;;;;;;;33.79;45.69;98840.01;1520567;90;21128;-65
2021/08/17 09:57:02;;;;;;;9.88;7.47;;;;;;;33.57;43.82;98840.26;1589506;90;21073;-66
2021/08/17 09:59:31;;;;;;;8.33;6.80;;;;;;;32.74;45.86;98836.67;1589883;90;21145;-65
2021/08/17 10:01:58;;;;;;;175.75;16.85;;;;;;;32.13;46.77;98829.19;1635666;86;21882;-65
2021/08/17 10:04:25;;;;;;;21.65;7.80;;;;;;;31.89;48.52;98838.77;1661063;86;21057;-65
2021/08/17 10:06:57;;;;;;;17.10;7.35;;;;;;;31.62;50.51;98841.46;1584790;89;21395;-64
2021/08/17 10:09:24;;;;;;;14.45;7.87;;;;;;;31.07;50.44;98845.16;1676146;84;21564;-62
2021/08/17 10:11:51;;;;;;;;;;;;;;;30.80;51.30;98845.73;1722684;82;21075;-63
2021/08/17 10:14:19;;;;;;;35.15;9.03;;;;;;;30.54;50.07;98842.95;1748598;81;20183;-63
2021/08/17 10:16:45;;;;;;;20.67;8.50;;;;;;;30.46;51.25;98849.13;1718765;83;21521;-64
2021/08/17 10:19:21;;;;;;;20.05;8.88;;;;;;;30.46;50.73;98849.73;1748655;82;21035;-65
2021/08/17 10:21:50;;;;;;;15.78;8.98;;;;;;;30.28;52.26;98852.58;1720671;82;20940;-64
2021/08/17 10:24:36;;;;;;;12.65;8.65;;;;;;;30.27;52.88;98846.87;1751560;81;21024;-64
2021/08/17 10:27:36;;;;;;;14.38;9.45;;;;;;;30.10;52.68;98841.58;1733194;82;21137;-65
2021/08/17 10:30:10;;;;;;;13.25;9.28;;;;;;;30.34;51.47;98855.13;1733623;82;21505;-65
2021/08/17 10:32:45;;;;;;;19.95;9.73;;;;;;;30.64;49.69;98846.84;1733722;82;21603;-64
2021/08/17 10:35:36;;;;;;;49.25;13.43;;;;;;;30.41;50.16;98850.95;1730292;82;20956;-65
2021/08/17 10:38:15;;;;;;;24.40;11.80;;;;;;;30.66;50.87;98849.99;1702326;83;21043;-65
2021/08/17 10:40:56;;;;;;;18.37;10.70;;;;;;;30.85;51.43;98849.48;1747672;81;21156;-65
2021/08/17 10:43:40;;;;;;;16.70;9.73;;;;;;;30.83;50.69;98844.17;1749116;82;21504;-65
2021/08/17 10:46:14;;;;;;;29.87;10.60;;;;;;;30.93;51.11;98839.91;1716424;83;21033;-65
2021/08/17 10:48:54;;;;;;;18.15;8.93;;;;;;;31.00;51.66;98843.23;1753858;80;21096;-65
2021/08/17 10:51:32;;;;;;;15.70;8.88;;;;;;;31.12;50.89;98844.72;1749119;82;21543;-65
2021/08/17 10:54:14;;;;;;;16.37;9.10;;;;;;;30.97;50.49;98838.52;1750032;82;21198;-65
2021/08/17 10:56:41;;;;;;;20.60;8.90;;;;;;;30.96;51.08;98840.48;1750618;80;21467;-65
2021/08/17 10:59:08;;;;;;;51.95;11.55;;;;;;;31.05;50.80;98840.02;1813742;78;20988;-65
2021/08/17 11:01:42;;;;;;;16.80;8.80;;;;;;;31.13;51.81;98837.36;1820400;78;20963;-65
2021/08/17 11:04:19;;;;;;;17.42;8.45;;;;;;;31.30;52.16;98836.23;1819957;78;20905;-65
2021/08/17 11:06:52;;;;;;;13.28;8.80;;;;;;;31.38;50.75;98835.76;1819926;78;21726;-65
2021/08/17 11:09:31;;;;;;;19.95;8.63;;;;;;;31.43;51.90;98830.97;1820541;78;21404;-65
2021/08/17 11:11:59;;;;;;;20.48;9.78;;;;;;;31.55;52.72;98834.00;1819662;78;20969;-65
2021/08/17 11:14:29;;;;;;;16.85;9.35;;;;;;;31.63;51.80;98829.77;1786626;80;21031;-65
2021/08/17 11:17:13;;;;;;;17.73;8.73;;;;;;;31.86;50.61;98833.27;1756130;80;21015;-65
2021/08/17 11:19:45;;;;;;;10.48;8.25;;;;;;;31.65;49.84;98830.92;1787489;78;21101;-64
2021/08/17 11:22:16;;;;;;;15.55;8.90;;;;;;;31.62;49.49;98827.59;1825347;78;20818;-64
2021/08/17 11:24:46;;;;;;;19.20;8.78;;;;;;;31.64;50.37;98825.20;1824608;78;20868;-64
2021/08/17 11:27:17;;;;;;;21.62;8.65;;;;;;;31.71;49.50;98819.57;1823769;78;20881;-64
2021/08/17 11:30:03;;;;;;;12.03;8.88;;;;;;;31.67;50.01;98821.59;1823833;78;20897;-64
2021/08/17 11:32:41;;;;;;;15.80;10.80;;;;;;;31.75;50.44;98817.55;1822955;78;21118;-65
2021/08/17 11:35:13;;;;;;;25.75;14.45;;;;;;;31.69;50.10;98812.26;1822435;78;21391;-64
2021/08/17 11:37:47;;;;;;;28.35;16.20;;;;;;;31.66;50.86;98803.39;1823489;78;20845;-65
2021/08/17 11:40:16;;;;;;;30.82;13.00;;;;;;;31.78;50.69;98805.62;1792169;78;20941;-64
2021/08/17 11:42:45;;;;;;;18.25;11.12;;;;;;;32.29;49.04;98804.97;1765506;80;20915;-65